Time;durP1;ratioP1;P1;durP2;ratioP2;P2;SDS_P1;SDS_P2;PMS_P1;PMS_P2;Temp;Humidity;BMP_temperature;BMP_pressure;BME280_temperature;BME280_humidity;BME280_pressure;Samples;Min_cycle;Max_cycle;Signal;HPM_P1;HPM_P2
2021/07/01 00:02:12;;;;;;;;;;;;;;;;;;2138868;67;1151;-69
2021/07/01 00:04:37;;;;;;;;;;;;;;;;;;2137321;59;1981;-68
2021/07/01 00:07:03;;;;;;;;;;;;;;;;;;2139028;59;1500;-68
2021/07/01 00:09:28;;;;;;;;;;;;;;;;;;2137563;67;1170;-67
2021/07/01 00:11:55;;;;;;;;;;;;;;;;;;2138687;67;1100;-68
2021/07/01 00:14:21;;;;;;;;;;;;;;;;;;2137711;67;1367;-69
2021/07/01 00:16:47;;;;;;;;;;;;;;;;;;2138654;59;1522;-69
2021/07/01 00:19:12;;;;;;;;;;;;;;;;;;2137852;67;1231;-68
2021/07/01 00:21:38;;;;;;;;;;;;;;;;;;2138100;67;1089;-69
2021/07/01 00:24:03;;;;;;;;;;;;;;;;;;2137590;67;1985;-69
2021/07/01 00:26:28;;;;;;;;;;;;;;;;;;2137765;67;1269;-67
2021/07/01 00:28:54;;;;;;;;;;;;;;;;;;2137363;67;1376;-68
2021/07/01 00:31:19;;;;;;;;;;;;;;;;;;2138159;67;1215;-67
2021/07/01 00:33:44;;;;;;;;;;;;;;;;;;2137385;59;1456;-68
2021/07/01 00:36:09;;;;;;;;;;;;;;;;;;2138276;67;1191;-69
2021/07/01 00:38:34;;;;;;;;;;;;;;;;;;2137636;67;1230;-67
2021/07/01 00:41:00;;;;;;;;;;;;;;;;;;2137741;67;1217;-68
2021/07/01 00:43:25;;;;;;;;;;;;;;;;;;2137981;67;1971;-68
2021/07/01 00:45:50;;;;;;;;;;;;;;;;;;2137491;67;1147;-69
2021/07/01 00:48:16;;;;;;;;;;;;;;;;;;2138115;59;1399;-66
2021/07/01 00:50:41;;;;;;;;;;;;;;;;;;2138318;67;1189;-68
2021/07/01 00:53:06;;;;;;;;;;;;;;;;;;2138679;67;1225;-69
2021/07/01 00:55:32;;;;;;;;;;;;;;;;;;2138439;67;1152;-68
2021/07/01 00:57:57;;;;;;;;;;;;;;;;;;2138291;67;1266;-68
2021/07/01 01:00:37;;;;;;;;;;;;;;;;;;2138381;67;1191;-70
2021/07/01 01:03:02;;;;;;;;;;;;;;;;;;2138130;59;1348;-68
2021/07/01 01:05:27;;;;;;;;;;;;;;;;;;2136566;67;1931;-68
2021/07/01 01:07:52;;;;;;;;;;;;;;;;;;2138438;67;1435;-68
2021/07/01 01:10:18;;;;;;;;;;;;;;;;;;2138109;59;1327;-69
2021/07/01 01:12:43;;;;;;;;;;;;;;;;;;2138455;67;1325;-69
2021/07/01 01:15:08;;;;;;;;;;;;;;;;;;2138261;59;1275;-69
2021/07/01 01:17:33;;;;;;;;;;;;;;;;;;2145241;53;2057;-65
2021/07/01 01:19:59;;;;;;;;;;;;;;;;;;2140940;59;1391;-66
2021/07/01 01:22:24;;;;;;;;;;;;;;;;;;2141328;59;1207;-65
2021/07/01 01:24:49;;;;;;;;;;;;;;;;;;2140331;67;1937;-65
2021/07/01 01:27:14;;;;;;;;;;;;;;;;;;2142459;59;1223;-69
2021/07/01 01:29:40;;;;;;;;;;;;;;;;;;2139193;59;1265;-64
2021/07/01 01:32:05;;;;;;;;;;;;;;;;;;2140943;66;1160;-67
2021/07/01 01:34:30;;;;;;;;;;;;;;;;;;2141468;59;1148;-65
2021/07/01 01:36:55;;;;;;;;;;;;;;;;;;2140648;66;1243;-64
2021/07/01 01:39:21;;;;;;;;;;;;;;;;;;2140574;66;1361;-65
2021/07/01 01:41:47;;;;;;;;;;;;;;;;;;2140279;67;1062;-65
2021/07/01 01:44:12;;;;;;;;;;;;;;;;;;2140501;66;1956;-63
2021/07/01 01:46:38;;;;;;;;;;;;;;;;;;2139872;67;1123;-66
2021/07/01 01:49:04;;;;;;;;;;;;;;;;;;2141864;66;1299;-67
2021/07/01 01:51:29;;;;;;;;;;;;;;;;;;2140434;59;1188;-64
2021/07/01 01:53:55;;;;;;;;;;;;;;;;;;2141269;66;1215;-63
2021/07/01 01:56:20;;;;;;;;;;;;;;;;;;2139462;67;1187;-62
2021/07/01 01:58:46;;;;;;;;;;;;;;;;;;2140756;66;1257;-61
2021/07/01 02:01:11;;;;;;;;;;;;;;;;;;2139434;67;1135;-64
2021/07/01 02:03:36;;;;;;;;;;;;;;;;;;2140808;66;1976;-63
2021/07/01 02:06:02;;;;;;;;;;;;;;;;;;2139538;67;1156;-67
2021/07/01 02:08:27;;;;;;;;;;;;;;;;;;2140052;59;1453;-62
2021/07/01 02:10:52;;;;;;;;;;;;;;;;;;2139861;67;1248;-68
2021/07/01 02:13:17;;;;;;;;;;;;;;;;;;2140699;66;1130;-65
2021/07/01 02:15:42;;;;;;;;;;;;;;;;;;2140467;59;1327;-66
2021/07/01 02:18:09;;;;;;;;;;;;;;;;;;2140451;59;1183;-63
2021/07/01 02:20:34;;;;;;;;;;;;;;;;;;2138296;67;1325;-65
2021/07/01 02:22:59;;;;;;;;;;;;;;;;;;2140937;66;1148;-64
2021/07/01 02:25:25;;;;;;;;;;;;;;;;;;2140030;66;1980;-68
2021/07/01 02:27:50;;;;;;;;;;;;;;;;;;2141704;66;1198;-64
2021/07/01 02:30:16;;;;;;;;;;;;;;;;;;2142170;66;1170;-66
2021/07/01 02:32:41;;;;;;;;;;;;;;;;;;2140980;66;1345;-66
2021/07/01 02:35:07;;;;;;;;;;;;;;;;;;2140397;66;1079;-64
2021/07/01 02:37:33;;;;;;;;;;;;;;;;;;2139633;66;1256;-63
2021/07/01 02:39:58;;;;;;;;;;;;;;;;;;2141935;66;1153;-64
2021/07/01 02:42:23;;;;;;;;;;;;;;;;;;2138729;67;1788;-65
2021/07/01 02:44:48;;;;;;;;;;;;;;;;;;2141742;66;1915;-63
2021/07/01 02:47:13;;;;;;;;;;;;;;;;;;2140099;59;1413;-70
2021/07/01 02:49:38;;;;;;;;;;;;;;;;;;2141796;66;1062;-66
2021/07/01 02:52:04;;;;;;;;;;;;;;;;;;2140423;59;1184;-67
2021/07/01 02:54:29;;;;;;;;;;;;;;;;;;2141926;66;1154;-64
2021/07/01 02:56:54;;;;;;;;;;;;;;;;;;2139596;67;1207;-64
2021/07/01 02:59:19;;;;;;;;;;;;;;;;;;2141250;66;1155;-63
2021/07/01 03:01:49;;;;;;;;;;;;;;;;;;2139379;67;1168;-64
2021/07/01 03:04:15;;;;;;;;;;;;;;;;;;2141578;66;1923;-66
2021/07/01 03:06:41;;;;;;;;;;;;;;;;;;2139401;67;1153;-63
2021/07/01 03:09:06;;;;;;;;;;;;;;;;;;2140516;66;1406;-64
2021/07/01 03:11:32;;;;;;;;;;;;;;;;;;2139576;67;1330;-64
2021/07/01 03:13:57;;;;;;;;;;;;;;;;;;2141176;59;1270;-64
2021/07/01 03:16:22;;;;;;;;;;;;;;;;;;2139435;59;1248;-67
2021/07/01 03:18:51;;;;;;;;;;;;;;;;;;2139360;59;1302;-64
2021/07/01 03:21:16;;;;;;;;;;;;;;;;;;2140245;67;1150;-64
2021/07/01 03:23:42;;;;;;;;;;;;;;;;;;2139828;66;1929;-64
2021/07/01 03:26:09;;;;;;;;;;;;;;;;;;2139808;67;1174;-66
2021/07/01 03:28:34;;;;;;;;;;;;;;;;;;2139956;59;1338;-64
2021/07/01 03:30:59;;;;;;;;;;;;;;;;;;2139529;67;1341;-67
2021/07/01 03:33:24;;;;;;;;;;;;;;;;;;2140277;66;1219;-62
2021/07/01 03:35:50;;;;;;;;;;;;;;;;;;2141784;67;1136;-65
2021/07/01 03:38:15;;;;;;;;;;;;;;;;;;2138738;67;1231;-63
2021/07/01 03:40:40;;;;;;;;;;;;;;;;;;2141677;67;1148;-64
2021/07/01 03:43:05;;;;;;;;;;;;;;;;;;2138868;67;1144;-67
2021/07/01 03:45:31;;;;;;;;;;;;;;;;;;2141000;67;1927;-64
2021/07/01 03:47:56;;;;;;;;;;;;;;;;;;2137918;67;1278;-65
2021/07/01 03:50:21;;;;;;;;;;;;;;;;;;2140953;67;1326;-65
2021/07/01 03:52:46;;;;;;;;;;;;;;;;;;2139048;67;1235;-64
2021/07/01 03:55:12;;;;;;;;;;;;;;;;;;2140069;67;1168;-65
2021/07/01 03:57:37;;;;;;;;;;;;;;;;;;2139284;67;1276;-64
2021/07/01 04:00:03;;;;;;;;;;;;;;;;;;2139793;67;1199;-67
2021/07/01 04:02:29;;;;;;;;;;;;;;;;;;2138407;67;1174;-64
2021/07/01 04:04:54;;;;;;;;;;;;;;;;;;2140276;67;1960;-68
2021/07/01 04:07:19;;;;;;;;;;;;;;;;;;2139423;59;1394;-65
2021/07/01 04:09:44;;;;;;;;;;;;;;;;;;2140180;67;1164;-68
2021/07/01 04:12:10;;;;;;;;;;;;;;;;;;2139250;67;1165;-65
2021/07/01 04:14:35;;;;;;;;;;;;;;;;;;2138449;59;1175;-67
2021/07/01 04:17:00;;;;;;;;;;;;;;;;;;2139431;59;1242;-65
2021/07/01 04:19:25;;;;;;;;;;;;;;;;;;2138784;67;1159;-67
2021/07/01 04:21:51;;;;;;;;;;;;;;;;;;2139524;67;1202;-70
2021/07/01 04:24:16;;;;;;;;;;;;;;;;;;2138964;67;1919;-66
2021/07/01 04:26:41;;;;;;;;;;;;;;;;;;2140175;66;1207;-69
2021/07/01 04:29:06;;;;;;;;;;;;;;;;;;2140423;67;1313;-64
2021/07/01 04:31:33;;;;;;;;;;;;;;;;;;2140413;66;1350;-68
2021/07/01 04:33:58;;;;;;;;;;;;;;;;;;2140722;66;1161;-66
2021/07/01 04:36:23;;;;;;;;;;;;;;;;;;2140399;66;1167;-68
2021/07/01 04:38:48;;;;;;;;;;;;;;;;;;2139356;67;1235;-64
2021/07/01 04:41:14;;;;;;;;;;;;;;;;;;2140455;66;1210;-69
2021/07/01 04:43:39;;;;;;;;;;;;;;;;;;2139311;67;2379;-66
2021/07/01 04:46:04;;;;;;;;;;;;;;;;;;2142425;66;1165;-64
2021/07/01 04:48:30;;;;;;;;;;;;;;;;;;2138572;59;2382;-68
2021/07/01 04:50:55;;;;;;;;;;;;;;;;;;2141380;59;1207;-65
2021/07/01 04:53:20;;;;;;;;;;;;;;;;;;2138154;67;1182;-69
2021/07/01 04:55:45;;;;;;;;;;;;;;;;;;2141631;59;1247;-65
2021/07/01 04:58:10;;;;;;;;;;;;;;;;;;2139690;66;1246;-67
2021/07/01 05:00:36;;;;;;;;;;;;;;;;;;2140386;66;1144;-66
2021/07/01 05:03:02;;;;;;;;;;;;;;;;;;2141525;66;1179;-66
2021/07/01 05:05:28;;;;;;;;;;;;;;;;;;2140226;59;1936;-67
2021/07/01 05:07:53;;;;;;;;;;;;;;;;;;2141336;59;1586;-66
2021/07/01 05:10:18;;;;;;;;;;;;;;;;;;2140919;66;1146;-69
2021/07/01 05:12:44;;;;;;;;;;;;;;;;;;2141459;67;1247;-66
2021/07/01 05:15:10;;;;;;;;;;;;;;;;;;2139853;59;1315;-66
2021/07/01 05:17:35;;;;;;;;;;;;;;;;;;2140951;59;1178;-70
2021/07/01 05:20:00;;;;;;;;;;;;;;;;;;2139517;67;1140;-67
2021/07/01 05:22:26;;;;;;;;;;;;;;;;;;2141095;59;1407;-67
2021/07/01 05:24:51;;;;;;;;;;;;;;;;;;2140434;67;2011;-69
2021/07/01 05:27:16;;;;;;;;;;;;;;;;;;2140078;66;1127;-67
2021/07/01 05:29:41;;;;;;;;;;;;;;;;;;2140782;59;1314;-70
2021/07/01 05:32:06;;;;;;;;;;;;;;;;;;2140459;66;1177;-66
2021/07/01 05:34:32;;;;;;;;;;;;;;;;;;2140874;66;1241;-70
2021/07/01 05:36:57;;;;;;;;;;;;;;;;;;2140535;66;1227;-65
2021/07/01 05:39:22;;;;;;;;;;;;;;;;;;2138790;67;1234;-70
2021/07/01 05:41:47;;;;;;;;;;;;;;;;;;2140631;66;1203;-70
2021/07/01 05:44:13;;;;;;;;;;;;;;;;;;2139307;67;1933;-68
2021/07/01 05:46:38;;;;;;;;;;;;;;;;;;2140175;66;1242;-71
2021/07/01 05:49:03;;;;;;;;;;;;;;;;;;2139608;67;1394;-66
2021/07/01 05:51:30;;;;;;;;;;;;;;;;;;2141095;66;1338;-69
2021/07/01 05:54:06;;;;;;;;;;;;;;;;;;2139670;67;1238;-64
2021/07/01 05:56:36;;;;;;;;;;;;;;;;;;2140638;66;1118;-67
2021/07/01 05:59:06;;;;;;;;;;;;;;;;;;2140739;66;1193;-66
2021/07/01 06:01:31;;;;;;;;;;;;;;;;;;2140286;66;1195;-70
2021/07/01 06:03:56;;;;;;;;;;;;;;;;;;2139462;59;2084;-69
2021/07/01 06:06:22;;;;;;;;;;;;;;;;;;2139712;66;1210;-68
2021/07/01 06:08:48;;;;;;;;;;;;;;;;;;2139913;59;1651;-66
2021/07/01 06:11:14;;;;;;;;;;;;;;;;;;2139422;67;1152;-66
2021/07/01 06:13:42;;;;;;;;;;;;;;;;;;2139085;59;1063;-67
2021/07/01 06:16:10;;;;;;;;;;;;;;;;;;2140527;59;1570;-68
2021/07/01 06:18:36;;;;;;;;;;;;;;;;;;2141162;59;1212;-67
2021/07/01 06:21:01;;;;;;;;;;;;;;;;;;2139720;59;1180;-70
2021/07/01 06:23:26;;;;;;;;;;;;;;;;;;2141358;66;1267;-66
2021/07/01 06:25:54;;;;;;;;;;;;;;;;;;2139275;59;1932;-67
2021/07/01 06:28:19;;;;;;;;;;;;;;;;;;2138833;59;1679;-68
2021/07/01 06:30:46;;;;;;;;;;;;;;;;;;2140208;59;1335;-66
2021/07/01 06:33:11;;;;;;;;;;;;;;;;;;2139188;59;1253;-66
2021/07/01 06:35:37;;;;;;;;;;;;;;;;;;2139658;67;1178;-66
2021/07/01 06:38:08;;;;;;;;;;;;;;;;;;2140652;66;1206;-68
2021/07/01 06:40:33;;;;;;;;;;;;;;;;;;2139070;67;1466;-67
2021/07/01 06:42:59;;;;;;;;;;;;;;;;;;2140418;59;1513;-68
2021/07/01 06:45:25;;;;;;;;;;;;;;;;;;2139583;59;1927;-68
2021/07/01 06:47:52;;;;;;;;;;;;;;;;;;2140789;59;1449;-67
2021/07/01 06:50:19;;;;;;;;;;;;;;;;;;2138484;67;1207;-67
2021/07/01 06:52:45;;;;;;;;;;;;;;;;;;2139534;66;1544;-70
2021/07/01 06:55:14;;;;;;;;;;;;;;;;;;2139516;67;1140;-69
2021/07/01 06:57:40;;;;;;;;;;;;;;;;;;2139783;66;1278;-68
2021/07/01 07:00:07;;;;;;;;;;;;;;;;;;2139746;67;1171;-67
2021/07/01 07:02:33;;;;;;;;;;;;;;;;;;2138821;67;1937;-68
2021/07/01 07:05:01;;;;;;;;;;;;;;;;;;2138753;59;2387;-68
2021/07/01 07:07:26;;;;;;;;;;;;;;;;;;2137709;67;1302;-67
2021/07/01 07:09:52;;;;;;;;;;;;;;;;;;2139234;59;1893;-68
2021/07/01 07:12:17;;;;;;;;;;;;;;;;;;2139896;66;1228;-68
2021/07/01 07:14:42;;;;;;;;;;;;;;;;;;2139160;59;2461;-70
2021/07/01 07:17:08;;;;;;;;;;;;;;;;;;2145096;58;2688;-68
2021/07/01 07:19:33;;;;;;;;;;;;;;;;;;2148177;58;1807;-70
2021/07/01 07:22:01;;;;;;;;;;;;;;;;;;2149543;59;1143;-69
2021/07/01 07:24:28;;;;;;;;;;;;;;;;;;2146592;58;2257;-70
2021/07/01 07:26:53;;;;;;;;;;;;;;;;;;2148369;58;1256;-71
2021/07/01 07:29:20;;;;;;;;;;;;;;;;;;2148663;58;1269;-70
2021/07/01 07:31:45;;;;;;;;;;;;;;;;;;2149958;66;1136;-70
2021/07/01 07:34:10;;;;;;;;;;;;;;;;;;2148270;58;2304;-69
2021/07/01 07:36:36;;;;;;;;;;;;;;;;;;2146974;59;1171;-69
2021/07/01 07:39:02;;;;;;;;;;;;;;;;;;2150508;58;1283;-70
2021/07/01 07:41:27;;;;;;;;;;;;;;;;;;2149517;59;1216;-70
2021/07/01 07:43:53;;;;;;;;;;;;;;;;;;2148033;66;1970;-70
2021/07/01 07:46:19;;;;;;;;;;;;;;;;;;2150293;66;1127;-68
2021/07/01 07:48:44;;;;;;;;;;;;;;;;;;2148294;66;1536;-70
2021/07/01 07:51:11;;;;;;;;;;;;;;;;;;2149275;58;1179;-71
2021/07/01 07:53:38;;;;;;;;;;;;;;;;;;2149331;66;1296;-70
2021/07/01 07:56:05;;;;;;;;;;;;;;;;;;2150010;66;1249;-71
2021/07/01 07:58:31;;;;;;;;;;;;;;;;;;2144671;58;1925;-71
2021/07/01 08:00:57;;;;;;;;;;;;;;;;;;2148375;66;1150;-67
2021/07/01 08:03:23;;;;;;;;;;;;;;;;;;2148807;66;1252;-66
2021/07/01 08:05:49;;;;;;;;;;;;;;;;;;2149392;66;1924;-70
2021/07/01 08:08:15;;;;;;;;;;;;;;;;;;2147363;58;2466;-71
2021/07/01 08:10:43;;;;;;;;;;;;;;;;;;2148099;66;2317;-65
2021/07/01 08:13:08;;;;;;;;;;;;;;;;;;2147567;66;1068;-68
2021/07/01 08:15:37;;;;;;;;;;;;;;;;;;2146912;58;1309;-70
2021/07/01 08:18:04;;;;;;;;;;;;;;;;;;2148293;58;1705;-69
2021/07/01 08:20:30;;;;;;;;;;;;;;;;;;2149632;66;1668;-67
2021/07/01 08:22:56;;;;;;;;;;;;;;;;;;2145080;58;2348;-66
2021/07/01 08:25:22;;;;;;;;;;;;;;;;;;2145483;58;1955;-68
2021/07/01 08:27:49;;;;;;;;;;;;;;;;;;2147523;59;1312;-67
2021/07/01 08:30:15;;;;;;;;;;;;;;;;;;2148797;66;1275;-71
2021/07/01 08:32:41;;;;;;;;;;;;;;;;;;2147957;58;1829;-69
2021/07/01 08:35:07;;;;;;;;;;;;;;;;;;2148402;66;1264;-70
2021/07/01 08:37:33;;;;;;;;;;;;;;;;;;2143679;66;1478;-69
2021/07/01 08:39:59;;;;;;;;;;;;;;;;;;2148988;58;1165;-70
2021/07/01 08:42:30;;;;;;;;;;;;;;;;;;2150180;66;1080;-71
2021/07/01 08:44:57;;;;;;;;;;;;;;;;;;2145958;66;1980;-72
2021/07/01 08:47:28;;;;;;;;;;;;;;;;;;2145790;59;1340;-70
2021/07/01 08:49:55;;;;;;;;;;;;;;;;;;2146146;66;1227;-69
2021/07/01 08:52:22;;;;;;;;;;;;;;;;;;2147695;58;2076;-69
2021/07/01 08:54:47;;;;;;;;;;;;;;;;;;2148752;66;1244;-72
2021/07/01 08:57:13;;;;;;;;;;;;;;;;;;2148176;58;1232;-70
2021/07/01 08:59:38;;;;;;;;;;;;;;;;;;2147758;66;1144;-72
2021/07/01 09:02:07;;;;;;;;;;;;;;;;;;2148164;66;1253;-69
2021/07/01 09:04:49;;;;;;;;;;;;;;;;;;2146890;66;1980;-69
2021/07/01 09:07:15;;;;;;;;;;;;;;;;;;2149410;66;1628;-68
2021/07/01 09:09:41;;;;;;;;;;;;;;;;;;2146993;66;2620;-68
2021/07/01 09:12:08;;;;;;;;;;;;;;;;;;2150129;66;1313;-70
2021/07/01 09:14:36;;;;;;;;;;;;;;;;;;2147276;59;1397;-69
2021/07/01 09:17:02;;;;;;;;;;;;;;;;;;2148914;58;1266;-68
2021/07/01 09:19:27;;;;;;;;;;;;;;;;;;2147502;58;1336;-69
2021/07/01 09:21:52;;;;;;;;;;;;;;;;;;2150104;66;1181;-69
2021/07/01 09:24:18;;;;;;;;;;;;;;;;;;2148257;66;1917;-69
2021/07/01 09:26:47;;;;;;;;;;;;;;;;;;2147386;59;1349;-68
2021/07/01 09:29:12;;;;;;;;;;;;;;;;;;2149058;66;1363;-68
2021/07/01 09:31:38;;;;;;;;;;;;;;;;;;2147353;66;1226;-70
2021/07/01 09:34:05;;;;;;;;;;;;;;;;;;2146737;58;2209;-69
2021/07/01 09:36:31;;;;;;;;;;;;;;;;;;2146487;58;2013;-70
2021/07/01 09:38:57;;;;;;;;;;;;;;;;;;2148745;66;1200;-70
2021/07/01 09:41:23;;;;;;;;;;;;;;;;;;2147305;58;1812;-67
2021/07/01 09:43:48;;;;;;;;;;;;;;;;;;2144073;59;1923;-69
2021/07/01 09:46:16;;;;;;;;;;;;;;;;;;2148307;66;1483;-69
2021/07/01 09:48:45;;;;;;;;;;;;;;;;;;2146737;58;1881;-67
2021/07/01 09:51:11;;;;;;;;;;;;;;;;;;2147144;66;1090;-68
2021/07/01 09:53:37;;;;;;;;;;;;;;;;;;2148872;59;1183;-67
2021/07/01 09:56:04;;;;;;;;;;;;;;;;;;2146219;58;1764;-70
2021/07/01 09:58:31;;;;;;;;;;;;;;;;;;2147436;58;1345;-69
2021/07/01 10:00:57;;;;;;;;;;;;;;;;;;2147942;66;1301;-68
2021/07/01 10:03:22;;;;;;;;;;;;;;;;;;2144460;66;1789;-68
2021/07/01 10:05:47;;;;;;;;;;;;;;;;;;2146283;66;1935;-69
2021/07/01 10:08:13;;;;;;;;;;;;;;;;;;2146326;59;1599;-68
2021/07/01 10:10:56;;;;;;;;;;;;;;;;;;2144239;63;2257;-69
2021/07/01 10:13:22;;;;;;;;;;;;;;;;;;2145342;59;3049;-66
2021/07/01 10:15:49;;;;;;;;;;;;;;;;;;2144481;59;1620;-68
2021/07/01 10:18:15;;;;;;;;;;;;;;;;;;2147818;58;1331;-69
2021/07/01 10:20:41;;;;;;;;;;;;;;;;;;2146694;66;1982;-67
2021/07/01 10:23:23;;;;;;;;;;;;;;;;;;2146351;66;1136;-69
2021/07/01 10:25:53;;;;;;;;;;;;;;;;;;2147236;66;1915;-70
2021/07/01 10:28:19;;;;;;;;;;;;;;;;;;2148988;59;1326;-69
2021/07/01 10:30:57;;;;;;;;;;;;;;;;;;2146316;59;1997;-69
2021/07/01 10:33:23;;;;;;;;;;;;;;;;;;2144364;66;1215;-67
2021/07/01 10:35:49;;;;;;;;;;;;;;;;;;2146712;59;1257;-70
2021/07/01 10:38:14;;;;;;;;;;;;;;;;;;2147533;66;1551;-67
2021/07/01 10:40:41;;;;;;;;;;;;;;;;;;2146110;66;1374;-69
2021/07/01 10:43:07;;;;;;;;;;;;;;;;;;2146600;58;1827;-68
2021/07/01 10:45:33;;;;;;;;;;;;;;;;;;2146537;58;1990;-69
2021/07/01 10:48:12;;;;;;;;;;;;;;;;;;2149253;59;1737;-68
2021/07/01 10:50:38;;;;;;;;;;;;;;;;;;2147820;66;2016;-69
2021/07/01 10:53:23;;;;;;;;;;;;;;;;;;2146263;59;1919;-68
2021/07/01 10:55:48;;;;;;;;;;;;;;;;;;2147663;66;1615;-69
2021/07/01 10:58:16;;;;;;;;;;;;;;;;;;2147689;66;1666;-68
2021/07/01 11:00:45;;;;;;;;;;;;;;;;;;2149041;66;1688;-69
2021/07/01 11:03:12;;;;;;;;;;;;;;;;;;2148714;66;1582;-70
2021/07/01 11:05:38;;;;;;;;;;;;;;;;;;2149268;66;1931;-69
2021/07/01 11:08:03;;;;;;;;;;;;;;;;;;2148783;66;1518;-69
2021/07/01 11:10:36;;;;;;;;;;;;;;;;;;2146266;66;2923;-69
2021/07/01 11:13:05;;;;;;;;;;;;;;;;;;2147201;59;3413;-67
2021/07/01 11:15:30;;;;;;;;;;;;;;;;;;2149831;59;1445;-70
2021/07/01 11:18:05;;;;;;;;;;;;;;;;;;2148296;58;1544;-67
2021/07/01 11:20:30;;;;;;;;;;;;;;;;;;2148476;58;3712;-69
2021/07/01 11:22:56;;;;;;;;;;;;;;;;;;2149208;58;1812;-68
2021/07/01 11:25:26;;;;;;;;;;;;;;;;;;2149010;66;1986;-67
2021/07/01 11:27:52;;;;;;;;;;;;;;;;;;2148721;66;1507;-67
2021/07/01 11:30:22;;;;;;;;;;;;;;;;;;2150085;58;1382;-66
2021/07/01 11:32:47;;;;;;;;;;;;;;;;;;2147643;66;1434;-70
2021/07/01 11:35:21;;;;;;;;;;;;;;;;;;2149125;66;1482;-69
2021/07/01 11:37:46;;;;;;;;;;;;;;;;;;2148641;58;1935;-70
2021/07/01 11:40:20;;;;;;;;;;;;;;;;;;2149670;66;1800;-69
2021/07/01 11:42:46;;;;;;;;;;;;;;;;;;2148900;59;1686;-69
2021/07/01 11:45:12;;;;;;;;;;;;;;;;;;2149786;66;1920;-70
2021/07/01 11:47:40;;;;;;;;;;;;;;;;;;2150158;59;1683;-70
2021/07/01 11:50:05;;;;;;;;;;;;;;;;;;2143267;66;1750;-69
2021/07/01 11:52:32;;;;;;;;;;;;;;;;;;2147253;66;1419;-68
2021/07/01 11:54:58;;;;;;;;;;;;;;;;;;2146239;66;1531;-67
2021/07/01 11:57:23;;;;;;;;;;;;;;;;;;2147765;58;1947;-69
2021/07/01 11:59:49;;;;;;;;;;;;;;;;;;2150139;66;1487;-69
2021/07/01 12:02:15;;;;;;;;;;;;;;;;;;2148435;66;1374;-68
2021/07/01 12:04:41;;;;;;;;;;;;;;;;;;2149372;59;1930;-66
2021/07/01 12:07:22;;;;;;;;;;;;;;;;;;2149163;59;1961;-69
2021/07/01 12:09:48;;;;;;;;;;;;;;;;;;2147919;66;1769;-68
2021/07/01 12:12:14;;;;;;;;;;;;;;;;;;2144543;59;3213;-66
2021/07/01 12:14:41;;;;;;;;;;;;;;;;;;2148651;58;2379;-68
2021/07/01 12:17:07;;;;;;;;;;;;;;;;;;2148105;58;1469;-69
2021/07/01 12:19:47;;;;;;;;;;;;;;;;;;2150301;66;1552;-67
2021/07/01 12:22:31;;;;;;;;;;;;;;;;;;2147881;66;1520;-70
2021/07/01 12:24:56;;;;;;;;;;;;;;;;;;2144768;66;2013;-70
2021/07/01 12:27:31;;;;;;;;;;;;;;;;;;2147549;66;1715;-67
2021/07/01 12:29:56;;;;;;;;;;;;;;;;;;2146939;66;1498;-68
2021/07/01 12:32:28;;;;;;;;;;;;;;;;;;2147674;66;1519;-69
2021/07/01 12:34:53;;;;;;;;;;;;;;;;;;2147485;66;1529;-69
2021/07/01 12:37:20;;;;;;;;;;;;;;;;;;2148608;66;1491;-66
2021/07/01 12:39:47;;;;;;;;;;;;;;;;;;2148936;66;1582;-69
2021/07/01 12:42:13;;;;;;;;;;;;;;;;;;2149591;66;1633;-67
2021/07/01 12:44:41;;;;;;;;;;;;;;;;;;2148168;58;1947;-69
2021/07/01 12:47:06;;;;;;;;;;;;;;;;;;2147893;58;1516;-69
2021/07/01 12:49:37;;;;;;;;;;;;;;;;;;2148464;66;1565;-68
2021/07/01 12:52:02;;;;;;;;;;;;;;;;;;2148049;66;1404;-69
2021/07/01 12:54:30;;;;;;;;;;;;;;;;;;2148261;66;1753;-67
2021/07/01 12:56:55;;;;;;;;;;;;;;;;;;2148202;66;1630;-68
2021/07/01 12:59:21;;;;;;;;;;;;;;;;;;2148343;66;1479;-69
2021/07/01 13:01:46;;;;;;;;;;;;;;;;;;2149752;66;1299;-67
2021/07/01 13:04:12;;;;;;;;;;;;;;;;;;2146907;66;2128;-67
2021/07/01 13:06:40;;;;;;;;;;;;;;;;;;2149111;66;1637;-69
2021/07/01 13:09:06;;;;;;;;;;;;;;;;;;2148038;66;1856;-68
2021/07/01 13:11:49;;;;;;;;;;;;;;;;;;2148258;66;2506;-69
2021/07/01 13:14:15;;;;;;;;;;;;;;;;;;2145825;58;3297;-68
2021/07/01 13:16:40;;;;;;;;;;;;;;;;;;2147812;66;1890;-66
2021/07/01 13:19:21;;;;;;;;;;;;;;;;;;2146188;53;3559;-69
2021/07/01 13:21:54;;;;;;;;;;;;;;;;;;2139883;59;1852;-70
2021/07/01 13:24:19;;;;;;;;;;;;;;;;;;2140556;59;1929;-70
2021/07/01 13:26:45;;;;;;;;;;;;;;;;;;2139802;59;1674;-71
2021/07/01 13:29:11;;;;;;;;;;;;;;;;;;2140902;59;1936;-67
2021/07/01 13:31:36;;;;;;;;;;;;;;;;;;2140394;67;1385;-67
2021/07/01 13:34:04;;;;;;;;;;;;;;;;;;2140901;67;1524;-67
2021/07/01 13:36:29;;;;;;;;;;;;;;;;;;2140562;59;1539;-68
2021/07/01 13:38:55;;;;;;;;;;;;;;;;;;2140051;67;1454;-70
2021/07/01 13:41:26;;;;;;;;;;;;;;;;;;2140553;67;1536;-69
2021/07/01 13:43:51;;;;;;;;;;;;;;;;;;2139285;67;1987;-70
2021/07/01 13:46:19;;;;;;;;;;;;;;;;;;2140775;67;1501;-69
2021/07/01 13:48:45;;;;;;;;;;;;;;;;;;2140297;67;1616;-70
2021/07/01 13:51:10;;;;;;;;;;;;;;;;;;2140588;67;1530;-68
2021/07/01 13:53:35;;;;;;;;;;;;;;;;;;2140491;67;1445;-67
2021/07/01 13:56:04;;;;;;;;;;;;;;;;;;2140340;67;1471;-66
2021/07/01 13:58:31;;;;;;;;;;;;;;;;;;2139806;59;1924;-67
2021/07/01 14:00:57;;;;;;;;;;;;;;;;;;2139607;67;1627;-68
2021/07/01 14:03:33;;;;;;;;;;;;;;;;;;2139501;67;1861;-71
2021/07/01 14:06:05;;;;;;;;;;;;;;;;;;2139866;67;1984;-67
2021/07/01 14:08:30;;;;;;;;;;;;;;;;;;2140245;59;1766;-67
2021/07/01 14:10:57;;;;;;;;;;;;;;;;;;2138975;67;1579;-70
2021/07/01 14:13:23;;;;;;;;;;;;;;;;;;2139462;67;3222;-68
2021/07/01 14:15:48;;;;;;;;;;;;;;;;;;2138279;59;3370;-68
2021/07/01 14:18:13;;;;;;;;;;;;;;;;;;2140020;59;1811;-70
2021/07/01 14:20:39;;;;;;;;;;;;;;;;;;2137483;67;1792;-68
2021/07/01 14:23:17;;;;;;;;;;;;;;;;;;2139021;67;1829;-70
2021/07/01 14:25:42;;;;;;;;;;;;;;;;;;2140367;67;1934;-68
2021/07/01 14:28:07;;;;;;;;;;;;;;;;;;2140408;67;1585;-68
2021/07/01 14:30:33;;;;;;;;;;;;;;;;;;2140365;67;1538;-70
2021/07/01 14:32:59;;;;;;;;;;;;;;;;;;2140247;67;1384;-71
2021/07/01 14:35:25;;;;;;;;;;;;;;;;;;2140423;67;1521;-69
2021/07/01 14:38:06;;;;;;;;;;;;;;;;;;2140783;67;1642;-69
2021/07/01 14:40:32;;;;;;;;;;;;;;;;;;2140668;67;1615;-68
2021/07/01 14:43:04;;;;;;;;;;;;;;;;;;2139140;67;2361;-69
2021/07/01 14:45:29;;;;;;;;;;;;;;;;;;2140113;67;1992;-68
2021/07/01 14:47:54;;;;;;;;;;;;;;;;;;2141013;59;1708;-68
2021/07/01 14:50:20;;;;;;;;;;;;;;;;;;2140482;67;1450;-71
2021/07/01 14:52:45;;;;;;;;;;;;;;;;;;2139388;67;1518;-68
2021/07/01 14:55:15;;;;;;;;;;;;;;;;;;2140075;59;2207;-69
2021/07/01 14:57:42;;;;;;;;;;;;;;;;;;2139717;67;1652;-68
2021/07/01 15:00:08;;;;;;;;;;;;;;;;;;2138702;59;2332;-70
2021/07/01 15:02:35;;;;;;;;;;;;;;;;;;2139988;67;1756;-67
2021/07/01 15:05:14;;;;;;;;;;;;;;;;;;2137082;59;1969;-74
2021/07/01 15:07:43;;;;;;;;;;;;;;;;;;2140026;59;2160;-67
2021/07/01 15:10:09;;;;;;;;;;;;;;;;;;2139290;67;2128;-70
2021/07/01 15:12:34;;;;;;;;;;;;;;;;;;2140041;67;1887;-72
2021/07/01 15:15:00;;;;;;;;;;;;;;;;;;2139082;59;3155;-71
2021/07/01 15:17:34;;;;;;;;;;;;;;;;;;2139436;67;2501;-71
2021/07/01 15:20:00;;;;;;;;;;;;;;;;;;2139961;59;1535;-65
2021/07/01 15:22:25;;;;;;;;;;;;;;;;;;2139868;67;1688;-67
2021/07/01 15:24:54;;;;;;;;;;;;;;;;;;2139849;67;1935;-67
2021/07/01 15:27:20;;;;;;;;;;;;;;;;;;2140323;67;1570;-69
2021/07/01 15:29:45;;;;;;;;;;;;;;;;;;2140356;59;1507;-69
2021/07/01 15:32:11;;;;;;;;;;;;;;;;;;2140422;67;1662;-67
2021/07/01 15:34:36;;;;;;;;;;;;;;;;;;2140223;67;1558;-72
2021/07/01 15:37:01;;;;;;;;;;;;;;;;;;2140192;67;1420;-72
2021/07/01 15:39:27;;;;;;;;;;;;;;;;;;2140270;59;2154;-70
2021/07/01 15:41:52;;;;;;;;;;;;;;;;;;2140011;67;1779;-68
2021/07/01 15:44:19;;;;;;;;;;;;;;;;;;2139695;67;2159;-71
2021/07/01 15:46:44;;;;;;;;;;;;;;;;;;2139588;59;2350;-71
2021/07/01 15:49:09;;;;;;;;;;;;;;;;;;2139601;67;1702;-70
2021/07/01 15:51:34;;;;;;;;;;;;;;;;;;2140069;67;2657;-66
2021/07/01 15:54:00;;;;;;;;;;;;;;;;;;2140087;67;1477;-70
2021/07/01 15:56:25;;;;;;;;;;;;;;;;;;2140431;67;1474;-69
2021/07/01 15:58:51;;;;;;;;;;;;;;;;;;2139939;67;1426;-68
2021/07/01 16:01:16;;;;;;;;;;;;;;;;;;2139428;67;2112;-72
2021/07/01 16:03:42;;;;;;;;;;;;;;;;;;2139221;59;1859;-67
2021/07/01 16:06:07;;;;;;;;;;;;;;;;;;2139752;67;2136;-67
2021/07/01 16:08:32;;;;;;;;;;;;;;;;;;2140090;59;1626;-69
2021/07/01 16:10:58;;;;;;;;;;;;;;;;;;2139900;67;1809;-68
2021/07/01 16:13:23;;;;;;;;;;;;;;;;;;2139904;67;1603;-68
2021/07/01 16:15:48;;;;;;;;;;;;;;;;;;2139293;59;3094;-70
2021/07/01 16:18:14;;;;;;;;;;;;;;;;;;2139605;59;3191;-71
2021/07/01 16:20:39;;;;;;;;;;;;;;;;;;2140248;67;1700;-69
2021/07/01 16:23:06;;;;;;;;;;;;;;;;;;2140501;67;1376;-69
2021/07/01 16:25:32;;;;;;;;;;;;;;;;;;2140953;67;1969;-68
2021/07/01 16:27:57;;;;;;;;;;;;;;;;;;2141166;67;1514;-69
2021/07/01 16:30:23;;;;;;;;;;;;;;;;;;2140766;67;1466;-72
2021/07/01 16:32:49;;;;;;;;;;;;;;;;;;2139910;67;1825;-69
2021/07/01 16:35:15;;;;;;;;;;;;;;;;;;2140563;67;1631;-67
2021/07/01 16:37:40;;;;;;;;;;;;;;;;;;2140175;67;1540;-67
2021/07/01 16:40:07;;;;;;;;;;;;;;;;;;2140897;67;1503;-68
2021/07/01 16:42:32;;;;;;;;;;;;;;;;;;2140731;67;1386;-70
2021/07/01 16:44:58;;;;;;;;;;;;;;;;;;2140122;67;1994;-70
2021/07/01 16:47:25;;;;;;;;;;;;;;;;;;2141108;59;1499;-70
2021/07/01 16:49:52;;;;;;;;;;;;;;;;;;2140689;67;1903;-68
2021/07/01 16:52:21;;;;;;;;;;;;;;;;;;2140934;67;1622;-69
2021/07/01 16:54:48;;;;;;;;;;;;;;;;;;2140468;67;1641;-71
2021/07/01 16:57:16;;;;;;;;;;;;;;;;;;2136556;59;1961;-71
2021/07/01 16:59:44;;;;;;;;;;;;;;;;;;2140703;67;1679;-65